Time;durP1;ratioP1;P1;durP2;ratioP2;P2;SDS_P1;SDS_P2;PMS_P1;PMS_P2;Temp;Humidity;BMP_temperature;BMP_pressure;BME280_temperature;BME280_humidity;BME280_pressure;Samples;Min_cycle;Max_cycle;Signal;HPM_P1;HPM_P2
2023/06/21 00:01:19;;;;;;;7.20;4.20;;;;;;;24.47;57.36;98895.53;7237393;40;20249;31
2023/06/21 00:06:55;;;;;;;6.10;4.22;;;;;;;24.42;56.74;98883.66;7229848;40;20363;31
2023/06/21 00:12:16;;;;;;;5.50;4.20;;;;;;;24.51;56.51;98876.56;7193741;40;20246;31
2023/06/21 00:17:52;;;;;;;5.12;4.18;;;;;;;24.50;56.82;98881.22;7255027;40;20252;31
2023/06/21 00:23:28;;;;;;;6.15;4.40;;;;;;;24.57;57.60;98897.56;7267743;39;20245;31
2023/06/21 00:28:48;;;;;;;7.53;4.87;;;;;;;24.62;57.44;98914.94;7220283;40;20273;31
2023/06/21 00:39:29;;;;;;;6.85;5.05;;;;;;;24.23;60.05;98925.38;7249828;40;20264;31
2023/06/21 00:45:04;;;;;;;5.70;5.10;;;;;;;24.22;59.75;98926.44;7239073;40;20342;31
2023/06/21 00:50:39;;;;;;;8.70;4.90;;;;;;;24.15;60.38;98928.59;7276855;39;21398;31
2023/06/21 00:56:17;;;;;;;4.93;4.35;;;;;;;24.19;58.24;98924.22;7237510;40;20250;31
2023/06/21 01:01:55;;;;;;;6.00;4.60;;;;;;;24.15;59.23;98934.09;7260802;40;21449;31
2023/06/21 01:07:29;;;;;;;6.10;4.50;;;;;;;24.19;59.24;98935.25;7219227;40;20281;31
2023/06/21 01:13:08;;;;;;;5.70;4.70;;;;;;;24.25;58.75;98933.37;7179364;40;20247;31
2023/06/21 01:18:45;;;;;;;8.46;4.76;;;;;;;24.23;58.20;98941.06;7196566;40;20253;31
2023/06/21 01:24:22;;;;;;;5.40;4.40;;;;;;;24.23;58.31;98941.06;7206476;40;20261;31
2023/06/21 01:29:58;;;;;;;5.64;4.86;;;;;;;24.11;58.58;98932.09;7210642;40;20277;31
2023/06/21 01:35:33;;;;;;;5.82;4.55;;;;;;;24.05;59.71;98944.97;7214266;40;20238;31
2023/06/21 01:40:54;;;;;;;5.50;4.30;;;;;;;23.95;59.06;98928.38;7214385;40;20304;31
2023/06/21 01:51:35;;;;;;;6.72;5.18;;;;;;;23.83;59.77;98952.47;7205603;40;20265;31
2023/06/21 01:57:11;;;;;;;6.66;4.62;;;;;;;23.93;60.03;98954.50;7258846;40;20242;31
2023/06/21 02:03:15;;;;;;;6.80;4.70;;;;;;;23.88;59.62;98969.03;7282270;39;20293;31
2023/06/21 02:08:50;;;;;;;6.50;5.30;;;;;;;23.84;59.72;98983.56;7299488;39;20357;31
2023/06/21 02:14:25;;;;;;;7.12;4.93;;;;;;;23.77;60.25;98987.37;7200244;40;20262;31
2023/06/21 02:20:05;;;;;;;7.50;4.90;;;;;;;23.81;60.19;99009.72;7226479;40;21512;31
2023/06/21 02:25:37;;;;;;;6.85;4.55;;;;;;;23.79;60.75;99020.13;7239176;40;20331;31
2023/06/21 02:31:12;;;;;;;6.30;4.87;;;;;;;23.72;61.02;99022.25;7250186;40;20273;31
2023/06/21 02:36:35;;;;;;;6.22;4.65;;;;;;;23.74;60.41;99022.81;7257346;40;20361;31
2023/06/21 02:42:09;;;;;;;6.23;5.20;;;;;;;23.54;62.14;99041.81;7264654;39;20255;31
2023/06/21 02:47:31;;;;;;;7.80;5.07;;;;;;;23.44;61.92;99069.19;7246595;40;20365;31
2023/06/21 02:52:51;;;;;;;6.50;5.56;;;;;;;23.32;62.98;99078.34;7252903;40;20262;31
2023/06/21 02:58:27;;;;;;;7.15;6.28;;;;;;;23.23;62.54;99077.13;7279335;39;20276;31
2023/06/21 03:03:47;;;;;;;8.05;5.65;;;;;;;23.20;63.10;99080.38;7258751;40;20471;31
2023/06/21 03:14:28;;;;;;;6.57;5.50;;;;;;;23.26;62.83;99097.78;7335794;39;20283;31
2023/06/21 03:24:53;;;;;;;7.15;5.82;;;;;;;23.34;63.18;99175.22;7353183;39;20382;31
2023/06/21 03:35:34;;;;;;;9.10;5.55;;;;;;;22.90;65.72;99229.13;7320794;39;20270;31
2023/06/21 03:41:09;;;;;;;9.30;6.10;;;;;;;23.06;65.37;99177.19;7257359;40;20252;31
2023/06/21 03:46:29;;;;;;;7.73;5.80;;;;;;;23.18;65.88;99186.22;7233499;40;20362;31
2023/06/21 03:52:05;;;;;;;6.37;5.62;;;;;;;23.07;66.24;99170.63;7214746;40;20292;31
2023/06/21 03:57:26;;;;;;;7.55;5.80;;;;;;;23.08;66.67;99162.09;7189890;40;20264;31
2023/06/21 04:02:46;;;;;;;10.20;6.07;;;;;;;23.02;66.85;99146.63;7198562;40;20344;31
2023/06/21 04:08:23;;;;;;;8.70;6.20;;;;;;;22.79;68.61;99094.50;7204105;40;20253;31
2023/06/21 04:13:43;;;;;;;9.43;6.70;;;;;;;22.49;69.61;99023.34;7215016;40;20242;31
2023/06/21 04:19:03;;;;;;;8.40;6.98;;;;;;;22.48;69.84;99082.09;7234929;40;20237;31
2023/06/21 04:24:39;;;;;;;7.15;6.10;;;;;;;22.73;70.68;99118.31;7259870;39;20328;31
2023/06/21 04:30:15;;;;;;;8.10;6.40;;;;;;;22.74;70.86;99089.75;7191241;40;20313;31
2023/06/21 04:35:51;;;;;;;8.88;5.90;;;;;;;22.79;71.30;99117.34;7227050;40;20330;31
2023/06/21 04:41:28;;;;;;;7.75;6.00;;;;;;;22.79;70.72;99122.00;7277134;40;20263;31
2023/06/21 04:47:04;;;;;;;7.57;5.50;;;;;;;22.56;72.26;99133.91;7188041;40;20296;31
2023/06/21 04:52:24;;;;;;;7.30;5.30;;;;;;;22.33;73.66;99145.84;7196065;40;20262;31
2023/06/21 04:58:03;;;;;;;6.80;6.15;;;;;;;22.02;75.73;99160.84;7160152;40;20267;31
2023/06/21 05:03:38;;;;;;;8.05;6.35;;;;;;;22.25;74.52;99153.59;7189692;40;20250;31
2023/06/21 05:09:15;;;;;;;10.25;6.30;;;;;;;22.43;73.80;99151.53;7236242;40;20261;31
2023/06/21 05:14:52;;;;;;;9.25;6.10;;;;;;;22.16;75.73;99158.62;7279707;39;20255;31
2023/06/21 05:20:13;;;;;;;7.62;5.60;;;;;;;22.17;75.00;99190.53;7305791;39;20261;31
2023/06/21 05:30:53;;;;;;;7.80;5.75;;;;;;;22.54;74.71;99192.94;7274784;40;20294;31
2023/06/21 05:36:27;;;;;;;8.14;5.52;;;;;;;22.71;72.97;99182.88;7270880;39;20244;31
2023/06/21 05:41:48;;;;;;;6.35;5.30;;;;;;;22.88;72.81;99178.25;7281249;40;20244;31
2023/06/21 05:47:24;;;;;;;6.37;5.60;;;;;;;23.13;71.77;99164.94;7318942;39;20318;31
2023/06/21 05:52:41;;;;;;;7.43;5.78;;;;;;;23.17;71.60;99174.38;7066357;40;21207;31
2023/06/21 05:58:17;;;;;;;8.20;5.25;;;;;;;23.08;71.61;99167.59;7284187;40;20268;31
2023/06/21 06:03:54;;;;;;;6.05;5.45;;;;;;;23.11;71.22;99191.88;7284026;39;20241;31
2023/06/21 06:09:15;;;;;;;7.15;5.25;;;;;;;23.08;71.54;99219.84;7271972;39;20245;31
2023/06/21 06:14:38;;;;;;;5.80;5.10;;;;;;;23.05;71.92;99222.28;7272657;39;20281;31
2023/06/21 06:20:16;;;;;;;7.74;5.54;;;;;;;23.08;72.56;99230.03;7269550;40;20446;31
2023/06/21 06:25:36;;;;;;;6.60;5.22;;;;;;;23.19;72.11;99240.97;7247059;40;20283;31
2023/06/21 06:30:56;;;;;;;7.90;5.43;;;;;;;23.17;72.30;99229.38;7290135;40;20286;31
2023/06/21 06:41:37;;;;;;;5.62;5.12;;;;;;;23.32;71.53;99243.41;7298626;39;20357;31
2023/06/21 06:47:00;;;;;;;5.57;5.07;;;;;;;23.48;70.24;99262.97;7312738;39;20264;31
2023/06/21 06:52:18;;;;;;;6.87;5.70;;;;;;;23.42;70.42;99263.94;7288458;39;20264;31
2023/06/21 06:57:52;;;;;;;6.74;5.74;;;;;;;23.51;70.18;99274.31;7300450;40;20248;31
2023/06/21 07:03:28;;;;;;;6.12;5.53;;;;;;;23.73;69.89;99255.16;7197308;40;20341;31
2023/06/21 07:09:04;;;;;;;7.60;5.20;;;;;;;23.99;69.25;99256.38;7197573;40;20341;31
2023/06/21 07:14:40;;;;;;;8.82;5.60;;;;;;;23.96;68.47;99252.19;7204554;40;20283;31
2023/06/21 07:25:06;;;;;;;7.03;5.10;;;;;;;24.07;68.18;99229.25;7306546;39;20548;31
2023/06/21 07:35:47;;;;;;;6.75;5.80;;;;;;;24.22;69.04;99237.75;7284391;39;20287;31
2023/06/21 07:46:12;;;;;;;6.35;5.52;;;;;;;24.40;67.30;99235.78;7281580;40;20276;31
2023/06/21 07:56:52;;;;;;;5.60;5.00;;;;;;;24.37;67.45;99253.66;7267876;39;20623;31
2023/06/21 08:07:17;;;;;;;6.86;4.98;;;;;;;24.26;66.52;99273.91;7317296;39;20675;31
2023/06/21 08:17:57;;;;;;;5.70;4.90;;;;;;;24.19;67.52;99279.59;7297764;39;20699;31
2023/06/21 08:28:36;;;;;;;5.07;4.57;;;;;;;23.98;67.83;99290.50;7303936;39;20268;31
2023/06/21 08:39:17;;;;;;;6.30;4.85;;;;;;;24.01;68.08;99310.13;7250780;40;20337;31
2023/06/21 08:44:35;;;;;;;5.30;4.80;;;;;;;24.11;67.96;99301.19;7214573;40;21161;31
2023/06/21 08:50:11;;;;;;;5.82;5.32;;;;;;;24.30;67.94;99299.87;7191400;40;20231;31
2023/06/21 08:55:48;;;;;;;5.60;5.10;;;;;;;24.48;67.86;99283.06;7256844;40;20336;31
2023/06/21 09:01:23;;;;;;;5.20;4.70;;;;;;;25.22;66.30;99268.81;7248252;40;20266;31
2023/06/21 09:06:59;;;;;;;5.57;4.87;;;;;;;25.73;63.77;99281.19;7296009;39;20677;31
2023/06/21 09:12:35;;;;;;;5.62;5.03;;;;;;;25.69;63.94;99300.22;7300068;39;20257;31
2023/06/21 09:18:10;;;;;;;6.33;4.93;;;;;;;25.50;62.00;99299.72;7245520;40;20260;31
2023/06/21 09:23:31;;;;;;;5.32;4.80;;;;;;;25.39;62.61;99308.16;7215842;40;20398;31
2023/06/21 09:34:10;;;;;;;5.22;4.40;;;;;;;25.49;62.62;99322.09;7295251;40;20279;31
2023/06/21 09:39:45;;;;;;;4.80;4.15;;;;;;;25.55;62.64;99318.28;7254909;40;21398;31
2023/06/21 09:45:23;;;;;;;7.18;4.88;;;;;;;25.64;62.28;99321.41;7267854;39;20386;31
2023/06/21 09:50:59;;;;;;;6.18;4.66;;;;;;;25.53;63.13;99318.59;7236916;40;20253;31
2023/06/21 09:56:34;;;;;;;5.80;5.03;;;;;;;25.74;61.71;99299.44;7196227;40;20294;31
2023/06/21 10:02:09;;;;;;;5.30;4.72;;;;;;;25.81;62.20;99289.81;7227947;40;20313;31
2023/06/21 10:07:45;;;;;;;5.43;4.93;;;;;;;25.99;61.50;99286.66;7218546;40;20352;31
2023/06/21 10:13:05;;;;;;;5.62;4.80;;;;;;;26.18;61.94;99298.13;7216866;40;20254;31
2023/06/21 10:18:40;;;;;;;6.35;4.78;;;;;;;26.40;61.72;99309.94;7249354;39;20273;31
2023/06/21 10:24:16;;;;;;;6.28;5.22;;;;;;;26.45;61.17;99311.91;7199335;40;20463;31
2023/06/21 10:29:51;;;;;;;5.46;4.92;;;;;;;26.50;60.85;99309.16;7254849;40;20339;31
2023/06/21 10:35:26;;;;;;;5.15;4.65;;;;;;;26.59;60.54;99318.59;7305874;39;20349;31
2023/06/21 10:41:02;;;;;;;5.70;5.15;;;;;;;26.60;61.63;99320.25;7282412;40;20591;31
2023/06/21 10:46:37;;;;;;;5.70;5.06;;;;;;;26.61;59.98;99343.22;7275704;40;20327;31
2023/06/21 10:52:12;;;;;;;5.14;4.64;;;;;;;26.61;60.25;99316.41;7196528;40;20258;31
2023/06/21 10:57:48;;;;;;;5.40;4.35;;;;;;;26.81;59.72;99313.72;7203581;40;20258;31
2023/06/21 11:08:30;;;;;;;5.04;4.56;;;;;;;27.57;58.35;99314.06;7247743;39;20260;31
2023/06/21 11:14:01;;;;;;;5.50;5.00;;;;;;;27.64;57.60;99308.25;7268549;40;20744;31
2023/06/21 11:19:36;;;;;;;4.55;4.15;;;;;;;28.14;55.76;99315.78;7213703;40;20254;31
2023/06/21 11:25:11;;;;;;;4.87;4.12;;;;;;;28.41;54.88;99310.75;7218287;40;20265;31
2023/06/21 11:30:47;;;;;;;7.45;5.25;;;;;;;28.32;56.24;99320.75;7184752;40;20372;31
2023/06/21 11:36:22;;;;;;;7.25;4.87;;;;;;;28.44;55.35;99315.72;7194830;40;20453;31
2023/06/21 11:42:12;;;;;;;6.97;4.85;;;;;;;28.64;56.01;99332.34;7204031;40;20266;31
2023/06/21 11:47:48;;;;;;;5.30;4.50;;;;;;;28.47;53.94;99340.16;7217000;40;20262;31
2023/06/21 11:53:32;;;;;;;6.12;4.75;;;;;;;28.34;55.67;99321.31;7238854;40;20257;31
2023/06/21 11:58:53;;;;;;;4.86;4.46;;;;;;;28.40;54.66;99330.44;7193486;40;20246;31
2023/06/21 12:04:29;;;;;;;4.90;4.50;;;;;;;28.07;56.82;99329.91;7256641;40;20248;31
2023/06/21 12:10:05;;;;;;;5.60;4.55;;;;;;;28.33;54.47;99322.41;7244771;40;20250;31
2023/06/21 12:15:40;;;;;;;5.25;4.72;;;;;;;28.52;54.06;99329.03;7256689;40;20499;31
2023/06/21 12:21:16;;;;;;;6.60;4.60;;;;;;;28.85;52.90;99324.00;7221144;40;20398;31
2023/06/21 12:27:01;;;;;;;5.04;4.40;;;;;;;28.98;53.01;99327.00;7187135;40;20252;31
2023/06/21 12:32:37;;;;;;;6.07;4.55;;;;;;;29.26;52.88;99319.94;7151945;40;20262;31
2023/06/21 12:38:14;;;;;;;5.15;4.53;;;;;;;29.57;51.91;99315.06;7198655;40;20313;31
2023/06/21 12:43:49;;;;;;;4.85;4.20;;;;;;;29.66;50.00;99304.16;7209646;40;20277;31
2023/06/21 12:49:26;;;;;;;6.05;4.15;;;;;;;29.54;50.09;99297.00;7227106;40;20472;31
2023/06/21 12:55:07;;;;;;;6.30;4.25;;;;;;;29.62;49.74;99301.09;7216787;40;20269;31
2023/06/21 13:00:27;;;;;;;5.30;4.05;;;;;;;29.44;49.66;99297.06;7210564;40;20258;31
2023/06/21 13:05:45;;;;;;;5.83;4.30;;;;;;;29.77;49.04;99314.06;7046222;40;21181;31
2023/06/21 13:11:20;;;;;;;4.97;3.90;;;;;;;29.60;49.44;99324.75;7264487;39;20264;31
2023/06/21 13:16:55;;;;;;;4.70;3.80;;;;;;;29.72;49.34;99320.50;7256884;40;20285;31
2023/06/21 13:22:30;;;;;;;7.84;4.42;;;;;;;29.66;49.78;99318.06;7253622;40;20336;31
2023/06/21 13:28:06;;;;;;;4.30;3.90;;;;;;;29.64;49.01;99315.56;7203783;40;20329;31
2023/06/21 13:33:41;;;;;;;6.35;4.30;;;;;;;29.57;50.68;99317.00;7217087;40;20334;31
2023/06/21 13:39:02;;;;;;;4.80;3.94;;;;;;;29.74;50.15;99300.78;7214152;40;20258;31
2023/06/21 13:44:35;;;;;;;4.70;4.10;;;;;;;29.78;49.87;99304.62;7238445;40;20254;31
2023/06/21 13:50:11;;;;;;;6.00;3.80;;;;;;;29.81;50.70;99298.47;7235579;40;20249;31
2023/06/21 13:55:30;;;;;;;5.90;4.10;;;;;;;29.83;50.09;99304.59;7199936;40;20453;31
2023/06/21 14:01:07;;;;;;;4.07;3.62;;;;;;;29.70;50.93;99302.47;7191224;40;20262;31
2023/06/21 14:06:27;;;;;;;6.25;3.80;;;;;;;29.67;49.57;99308.59;7236488;40;20284;31
2023/06/21 14:17:06;;;;;;;4.24;3.84;;;;;;;29.34;50.58;99301.88;7297686;39;20287;31
2023/06/21 14:22:41;;;;;;;4.60;3.80;;;;;;;29.27;50.15;99291.03;7299299;39;20264;31
2023/06/21 14:28:02;;;;;;;5.30;4.25;;;;;;;29.28;49.80;99300.19;7297990;39;20264;31
2023/06/21 14:33:38;;;;;;;4.20;3.80;;;;;;;29.33;49.85;99302.97;7339905;39;20267;31
2023/06/21 14:39:12;;;;;;;5.68;3.85;;;;;;;29.25;49.89;99312.72;7316700;39;20568;31
2023/06/21 14:44:47;;;;;;;4.20;3.80;;;;;;;29.24;50.88;99305.50;7308299;39;20244;31
2023/06/21 14:50:24;;;;;;;8.05;4.50;;;;;;;29.42;49.68;99307.66;7281696;39;20275;31
2023/06/21 14:55:59;;;;;;;4.47;3.90;;;;;;;29.70;49.84;99313.59;7290411;39;20272;31
2023/06/21 15:01:17;;;;;;;4.30;3.90;;;;;;;29.72;49.30;99311.31;7247285;40;20253;31
2023/06/21 15:06:53;;;;;;;4.40;4.00;;;;;;;29.56;49.13;99307.84;7275713;39;20306;31
2023/06/21 15:12:28;;;;;;;4.47;4.07;;;;;;;29.55;49.14;99304.22;7265331;40;20265;31
2023/06/21 15:17:49;;;;;;;5.25;4.20;;;;;;;29.52;49.42;99304.81;7267664;40;20421;31
2023/06/21 15:23:25;;;;;;;4.30;3.80;;;;;;;29.68;49.50;99299.97;7262090;40;20246;31
2023/06/21 15:29:01;;;;;;;5.12;3.78;;;;;;;29.92;48.75;99291.75;7268949;39;20273;31
2023/06/21 15:39:40;;;;;;;4.47;3.75;;;;;;;29.93;49.51;99293.41;7307860;39;20304;31
2023/06/21 15:45:01;;;;;;;8.27;4.18;;;;;;;29.96;49.44;99281.72;7265031;40;20260;31
2023/06/21 15:50:19;;;;;;;5.85;3.95;;;;;;;29.90;48.58;99286.47;7276342;40;20244;31
2023/06/21 15:55:53;;;;;;;4.57;4.12;;;;;;;29.79;49.22;99286.84;7256388;40;21430;31
2023/06/21 16:01:28;;;;;;;4.70;3.80;;;;;;;29.71;49.40;99277.16;7293182;39;20280;31
2023/06/21 16:12:08;;;;;;;4.40;4.00;;;;;;;29.34;50.74;99282.41;7289776;40;20379;31
2023/06/21 16:22:47;;;;;;;4.25;3.85;;;;;;;29.38;50.30;99276.00;7281425;39;20292;31
2023/06/21 16:33:27;;;;;;;4.35;3.90;;;;;;;29.20;52.30;99251.63;7310642;39;20272;31
2023/06/21 16:38:47;;;;;;;4.75;3.55;;;;;;;29.26;51.25;99253.28;7278769;40;20257;31
2023/06/21 16:44:23;;;;;;;4.55;4.10;;;;;;;29.19;50.63;99254.69;7304778;39;20437;31
2023/06/21 16:49:56;;;;;;;4.30;3.90;;;;;;;29.04;51.65;99256.47;7281479;39;20249;31
2023/06/21 16:55:28;;;;;;;5.00;4.10;;;;;;;29.08;51.46;99252.00;7267865;39;20398;31
2023/06/21 17:01:03;;;;;;;4.75;4.00;;;;;;;28.96;52.83;99242.34;7241905;39;20265;31
2023/06/21 17:06:39;;;;;;;5.03;4.12;;;;;;;28.91;53.10;99220.16;7200282;40;20273;31
2023/06/21 17:11:59;;;;;;;5.78;4.25;;;;;;;28.75;52.49;99213.84;7199746;40;20242;31
2023/06/21 17:17:35;;;;;;;6.35;4.55;;;;;;;28.63;53.51;99221.66;7221349;40;20272;31
2023/06/21 17:23:11;;;;;;;4.95;4.37;;;;;;;28.58;53.34;99197.53;7231527;40;20319;31
2023/06/21 17:28:46;;;;;;;5.75;4.10;;;;;;;28.54;53.97;99190.06;7234737;40;20246;31
2023/06/21 17:34:21;;;;;;;4.68;3.80;;;;;;;28.59;53.04;99174.22;7274275;40;20292;31
2023/06/21 17:44:59;;;;;;;5.45;4.10;;;;;;;28.58;53.53;99180.88;7238776;40;20300;31
2023/06/21 17:50:19;;;;;;;4.80;4.30;;;;;;;28.43;53.58;99182.91;7210043;40;20289;31
2023/06/21 17:55:39;;;;;;;4.75;4.15;;;;;;;28.35;53.47;99192.63;7226517;40;20273;31
2023/06/21 18:01:16;;;;;;;4.93;4.47;;;;;;;28.36;53.18;99191.50;7214879;40;20276;31
2023/06/21 18:06:51;;;;;;;4.70;4.30;;;;;;;28.40;54.90;99200.09;7200718;40;21571;31
2023/06/21 18:12:26;;;;;;;5.20;4.50;;;;;;;28.43;53.84;99194.00;7216553;40;20306;31
2023/06/21 18:18:02;;;;;;;5.34;4.74;;;;;;;28.31;53.94;99199.84;7172293;40;20274;31
2023/06/21 18:23:23;;;;;;;6.60;4.70;;;;;;;28.24;55.55;99213.19;7162494;40;20314;31
2023/06/21 18:28:43;;;;;;;5.98;4.88;;;;;;;28.25;55.52;99209.31;7216524;40;20343;31
2023/06/21 18:34:20;;;;;;;6.43;4.93;;;;;;;28.16;55.02;99211.00;7256345;40;20253;31
2023/06/21 18:39:55;;;;;;;5.47;4.43;;;;;;;28.02;55.91;99218.19;7263172;40;20289;31
2023/06/21 18:45:15;;;;;;;5.28;4.68;;;;;;;27.95;56.51;99223.19;7262134;39;20273;31
2023/06/21 18:55:53;;;;;;;4.70;4.30;;;;;;;27.92;57.49;99221.81;7283542;40;20349;31
2023/06/21 19:06:31;;;;;;;6.07;5.17;;;;;;;27.96;57.25;99213.75;7299437;39;20264;31
2023/06/21 19:12:06;;;;;;;8.38;5.03;;;;;;;27.85;57.92;99212.12;7318113;39;20251;31
2023/06/21 19:17:40;;;;;;;5.53;4.73;;;;;;;27.70;58.69;99208.25;7306361;39;20282;31
2023/06/21 19:23:15;;;;;;;5.20;4.70;;;;;;;27.63;59.16;99210.47;7296578;39;20261;31
2023/06/21 19:28:51;;;;;;;5.50;4.95;;;;;;;27.45;59.15;99210.16;7257857;40;20271;31
2023/06/21 19:34:26;;;;;;;6.64;5.00;;;;;;;27.28;59.68;99215.97;7185915;40;20247;31
2023/06/21 19:40:02;;;;;;;6.03;5.13;;;;;;;27.10;59.99;99222.00;7205181;40;20386;31
2023/06/21 19:45:35;;;;;;;6.18;4.60;;;;;;;26.96;60.66;99226.41;7240540;40;20312;31
2023/06/21 19:50:55;;;;;;;6.75;5.00;;;;;;;26.83;61.04;99223.03;7228388;40;20360;31
2023/06/21 19:56:27;;;;;;;5.70;4.75;;;;;;;26.73;62.40;99230.44;7036338;40;21456;31
2023/06/21 20:07:05;;;;;;;5.65;5.10;;;;;;;26.59;61.70;99241.16;7284322;39;20345;31
2023/06/21 20:17:45;;;;;;;7.72;5.00;;;;;;;26.19;63.31;99230.72;7307238;39;20533;31
2023/06/21 20:28:25;;;;;;;5.60;5.00;;;;;;;26.07;63.20;99227.31;7275386;39;20290;31
2023/06/21 20:33:46;;;;;;;6.53;5.53;;;;;;;25.77;63.50;99233.44;7238369;40;20270;31
2023/06/21 20:44:24;;;;;;;6.47;5.30;;;;;;;25.50;63.58;99214.16;7267416;39;20349;31
2023/06/21 20:49:59;;;;;;;6.62;5.48;;;;;;;25.42;63.40;99206.34;7235365;40;20237;31
2023/06/21 20:55:36;;;;;;;6.50;5.78;;;;;;;25.44;63.27;99206.94;7308716;39;20264;31
2023/06/21 21:01:13;;;;;;;7.96;6.40;;;;;;;25.43;62.93;99207.19;7341194;39;20278;31
2023/06/21 21:06:30;;;;;;;5.75;5.25;;;;;;;25.41;62.98;99199.16;7256855;39;20250;31
2023/06/21 21:12:04;;;;;;;7.65;5.50;;;;;;;25.31;63.35;99182.53;7258850;40;20335;31
2023/06/21 21:17:40;;;;;;;6.14;5.54;;;;;;;25.33;63.54;99162.94;7252698;40;20273;31
2023/06/21 21:23:01;;;;;;;7.72;5.53;;;;;;;25.33;63.17;99176.72;7260294;40;20249;31
2023/06/21 21:28:21;;;;;;;6.95;5.62;;;;;;;25.26;63.62;99181.66;7267033;39;20260;31
2023/06/21 21:33:56;;;;;;;5.80;5.25;;;;;;;25.03;64.23;99156.06;7275409;39;20333;31
2023/06/21 21:39:31;;;;;;;6.58;5.22;;;;;;;25.00;64.46;99166.78;7237544;40;20266;31
2023/06/21 21:44:52;;;;;;;6.65;5.30;;;;;;;24.92;63.44;99170.00;7194651;40;20329;31
2023/06/21 21:50:28;;;;;;;6.30;5.33;;;;;;;24.85;65.27;99196.91;7194560;40;20270;31
2023/06/21 21:56:03;;;;;;;7.20;5.18;;;;;;;24.89;63.71;99187.06;7198765;40;20261;31
2023/06/21 22:01:37;;;;;;;6.30;5.35;;;;;;;24.91;63.81;99235.38;7237643;40;20241;31
2023/06/21 22:07:13;;;;;;;6.65;5.10;;;;;;;25.00;64.64;99260.56;7271764;40;20257;31
2023/06/21 22:12:48;;;;;;;7.87;5.20;;;;;;;25.01;63.60;99293.38;7298371;39;20267;31
2023/06/21 22:18:09;;;;;;;5.32;4.75;;;;;;;25.01;64.02;99296.16;7298675;39;20394;31
2023/06/21 22:23:45;;;;;;;5.90;5.10;;;;;;;25.04;64.74;99334.28;7296161;39;20353;31
2023/06/21 22:29:05;;;;;;;5.05;4.32;;;;;;;25.17;64.54;99315.66;7285852;39;20249;31
2023/06/21 22:34:41;;;;;;;5.98;4.82;;;;;;;25.10;65.86;99236.66;7265786;40;20256;31
2023/06/21 22:40:16;;;;;;;5.80;5.00;;;;;;;24.95;65.95;99183.28;7277525;40;20256;31
2023/06/21 22:45:52;;;;;;;5.45;4.80;;;;;;;24.83;67.07;99202.72;7219838;40;20253;31
2023/06/21 22:51:13;;;;;;;5.72;5.08;;;;;;;24.82;67.50;99206.56;7228134;40;20253;31
2023/06/21 22:56:45;;;;;;;7.50;5.10;;;;;;;24.65;67.21;99201.13;7219544;40;20241;31
2023/06/21 23:02:21;;;;;;;6.70;4.56;;;;;;;24.58;67.64;99206.00;7196061;40;20246;31
2023/06/21 23:08:00;;;;;;;6.53;5.53;;;;;;;24.53;67.66;99194.06;7231460;40;20285;31
2023/06/21 23:18:35;;;;;;;8.68;4.72;;;;;;;24.47;68.08;99182.16;7228438;40;20495;31
2023/06/21 23:29:00;;;;;;;5.97;5.37;;;;;;;24.14;69.97;99162.94;7311931;39;20296;31
2023/06/21 23:39:40;;;;;;;7.97;5.10;;;;;;;24.02;69.64;99174.09;7345194;39;20343;31
2023/06/21 23:45:12;;;;;;;5.70;5.15;;;;;;;23.83;71.19;99158.94;7337095;39;20236;31
2023/06/21 23:50:31;;;;;;;5.97;5.37;;;;;;;23.78;70.78;99172.66;7281029;39;20369;31
2023/06/21 23:56:07;;;;;;;6.93;5.10;;;;;;;23.63;71.54;99175.16;7237771;40;20257;31
